sensor_id;sensor_type;location;lat;lon;timestamp;temperature;humidity
2463;DHT22;1243;54.298;10.172;2023-01-15T00:00:56;6.40;99.90
2463;DHT22;1243;54.298;10.172;2023-01-15T00:03:22;6.40;99.90
2463;DHT22;1243;54.298;10.172;2023-01-15T00:05:48;6.40;99.90
2463;DHT22;1243;54.298;10.172;2023-01-15T00:08:13;6.40;99.90
2463;DHT22;1243;54.298;10.172;2023-01-15T00:10:39;6.40;99.90
2463;DHT22;1243;54.298;10.172;2023-01-15T00:13:05;6.40;99.90
2463;DHT22;1243;54.298;10.172;2023-01-15T00:15:31;6.40;99.90
2463;DHT22;1243;54.298;10.172;2023-01-15T00:17:56;6.40;99.90
2463;DHT22;1243;54.298;10.172;2023-01-15T00:20:22;6.40;99.90
2463;DHT22;1243;54.298;10.172;2023-01-15T00:22:48;6.30;99.90
2463;DHT22;1243;54.298;10.172;2023-01-15T00:25:13;6.30;99.90
2463;DHT22;1243;54.298;10.172;2023-01-15T00:27:58;6.30;99.90
2463;DHT22;1243;54.298;10.172;2023-01-15T00:30:24;6.40;99.90
2463;DHT22;1243;54.298;10.172;2023-01-15T00:32:50;6.30;99.90
2463;DHT22;1243;54.298;10.172;2023-01-15T00:35:18;6.40;99.90
2463;DHT22;1243;54.298;10.172;2023-01-15T00:37:44;6.40;99.90
2463;DHT22;1243;54.298;10.172;2023-01-15T00:40:11;6.40;99.90
2463;DHT22;1243;54.298;10.172;2023-01-15T00:42:37;6.40;99.90
2463;DHT22;1243;54.298;10.172;2023-01-15T00:45:04;6.40;99.90
2463;DHT22;1243;54.298;10.172;2023-01-15T00:47:44;6.40;99.90
2463;DHT22;1243;54.298;10.172;2023-01-15T00:50:13;6.40;99.90
2463;DHT22;1243;54.298;10.172;2023-01-15T00:52:40;6.30;99.90
2463;DHT22;1243;54.298;10.172;2023-01-15T00:55:06;6.30;99.90
2463;DHT22;1243;54.298;10.172;2023-01-15T00:57:32;6.30;99.90
2463;DHT22;1243;54.298;10.172;2023-01-15T00:59:58;6.30;99.90
2463;DHT22;1243;54.298;10.172;2023-01-15T01:02:24;6.30;99.90
2463;DHT22;1243;54.298;10.172;2023-01-15T01:04:50;6.30;99.90
2463;DHT22;1243;54.298;10.172;2023-01-15T01:07:15;6.20;99.90
2463;DHT22;1243;54.298;10.172;2023-01-15T01:09:42;6.20;99.90
2463;DHT22;1243;54.298;10.172;2023-01-15T01:12:08;6.20;99.90
2463;DHT22;1243;54.298;10.172;2023-01-15T01:14:37;6.20;99.90
2463;DHT22;1243;54.298;10.172;2023-01-15T01:17:03;6.20;99.90
2463;DHT22;1243;54.298;10.172;2023-01-15T01:19:29;6.20;99.90
2463;DHT22;1243;54.298;10.172;2023-01-15T01:21:55;6.20;99.90
2463;DHT22;1243;54.298;10.172;2023-01-15T01:24:22;6.10;99.90
2463;DHT22;1243;54.298;10.172;2023-01-15T01:26:49;6.10;99.90
2463;DHT22;1243;54.298;10.172;2023-01-15T01:29:17;6.10;99.90
2463;DHT22;1243;54.298;10.172;2023-01-15T01:31:43;6.20;99.90
2463;DHT22;1243;54.298;10.172;2023-01-15T01:34:10;6.20;99.90
2463;DHT22;1243;54.298;10.172;2023-01-15T01:36:38;6.20;99.90
2463;DHT22;1243;54.298;10.172;2023-01-15T01:39:05;6.20;99.90
2463;DHT22;1243;54.298;10.172;2023-01-15T01:41:32;6.20;99.90
2463;DHT22;1243;54.298;10.172;2023-01-15T01:47:07;6.10;99.90
2463;DHT22;1243;54.298;10.172;2023-01-15T01:49:35;6.10;99.90
2463;DHT22;1243;54.298;10.172;2023-01-15T01:52:06;6.10;99.90
2463;DHT22;1243;54.298;10.172;2023-01-15T01:54:34;6.10;99.90
2463;DHT22;1243;54.298;10.172;2023-01-15T01:57:01;6.10;99.90
2463;DHT22;1243;54.298;10.172;2023-01-15T01:59:28;6.20;99.90
2463;DHT22;1243;54.298;10.172;2023-01-15T02:01:54;6.10;99.90
2463;DHT22;1243;54.298;10.172;2023-01-15T02:04:21;6.20;99.90
2463;DHT22;1243;54.298;10.172;2023-01-15T02:06:48;6.20;99.90
2463;DHT22;1243;54.298;10.172;2023-01-15T02:09:15;6.20;99.90
2463;DHT22;1243;54.298;10.172;2023-01-15T02:11:41;6.20;99.90
2463;DHT22;1243;54.298;10.172;2023-01-15T02:14:33;6.20;99.90
2463;DHT22;1243;54.298;10.172;2023-01-15T02:17:10;6.20;99.90
2463;DHT22;1243;54.298;10.172;2023-01-15T02:19:48;6.20;99.90
2463;DHT22;1243;54.298;10.172;2023-01-15T02:22:40;6.20;99.90
2463;DHT22;1243;54.298;10.172;2023-01-15T02:25:30;6.20;99.90
2463;DHT22;1243;54.298;10.172;2023-01-15T02:28:09;6.20;99.90
2463;DHT22;1243;54.298;10.172;2023-01-15T02:30:43;6.20;99.90
2463;DHT22;1243;54.298;10.172;2023-01-15T02:33:18;6.20;99.90
2463;DHT22;1243;54.298;10.172;2023-01-15T02:35:51;6.10;99.90
2463;DHT22;1243;54.298;10.172;2023-01-15T02:38:21;6.10;99.90
2463;DHT22;1243;54.298;10.172;2023-01-15T02:40:50;6.20;99.90
2463;DHT22;1243;54.298;10.172;2023-01-15T02:43:19;6.20;99.90
2463;DHT22;1243;54.298;10.172;2023-01-15T02:45:48;6.20;99.90
2463;DHT22;1243;54.298;10.172;2023-01-15T02:48:16;6.20;99.90
2463;DHT22;1243;54.298;10.172;2023-01-15T02:50:48;6.20;99.90
2463;DHT22;1243;54.298;10.172;2023-01-15T02:53:21;6.20;99.90
2463;DHT22;1243;54.298;10.172;2023-01-15T02:55:49;6.20;99.90
2463;DHT22;1243;54.298;10.172;2023-01-15T02:58:29;6.30;99.90
2463;DHT22;1243;54.298;10.172;2023-01-15T03:00:59;6.30;99.90
2463;DHT22;1243;54.298;10.172;2023-01-15T03:06:10;6.20;99.90
2463;DHT22;1243;54.298;10.172;2023-01-15T03:08:37;6.20;99.90
2463;DHT22;1243;54.298;10.172;2023-01-15T03:11:11;6.20;99.90
2463;DHT22;1243;54.298;10.172;2023-01-15T03:14:07;6.30;99.70
2463;DHT22;1243;54.298;10.172;2023-01-15T03:16:38;6.30;96.20
2463;DHT22;1243;54.298;10.172;2023-01-15T03:24:58;6.30;88.30
2463;DHT22;1243;54.298;10.172;2023-01-15T03:27:25;6.30;78.50
2463;DHT22;1243;54.298;10.172;2023-01-15T03:29:57;6.30;78.40
2463;DHT22;1243;54.298;10.172;2023-01-15T03:32:23;6.30;77.30
2463;DHT22;1243;54.298;10.172;2023-01-15T03:34:54;6.30;67.00
2463;DHT22;1243;54.298;10.172;2023-01-15T03:37:21;6.30;65.80
2463;DHT22;1243;54.298;10.172;2023-01-15T03:39:49;6.30;62.00
2463;DHT22;1243;54.298;10.172;2023-01-15T03:45:22;6.30;47.90
2463;DHT22;1243;54.298;10.172;2023-01-15T03:47:56;6.30;41.80
2463;DHT22;1243;54.298;10.172;2023-01-15T03:50:26;6.30;35.60
2463;DHT22;1243;54.298;10.172;2023-01-15T03:53:36;6.20;32.00
2463;DHT22;1243;54.298;10.172;2023-01-15T03:58:48;6.10;29.40
2463;DHT22;1243;54.298;10.172;2023-01-15T04:01:18;6.10;28.50
2463;DHT22;1243;54.298;10.172;2023-01-15T04:03:45;6.20;26.40
2463;DHT22;1243;54.298;10.172;2023-01-15T04:06:13;6.20;14.80
2463;DHT22;1243;54.298;10.172;2023-01-15T04:08:41;6.10;9.20
2463;DHT22;1243;54.298;10.172;2023-01-15T04:11:08;6.20;7.30
2463;DHT22;1243;54.298;10.172;2023-01-15T04:13:34;6.20;3.70
2463;DHT22;1243;54.298;10.172;2023-01-15T04:15:59;6.20;2.10
2463;DHT22;1243;54.298;10.172;2023-01-15T04:18:25;6.20;1.00
2463;DHT22;1243;54.298;10.172;2023-01-15T04:20:51;6.10;1.00
2463;DHT22;1243;54.298;10.172;2023-01-15T04:23:19;6.00;1.00
2463;DHT22;1243;54.298;10.172;2023-01-15T04:25:45;6.00;1.00
2463;DHT22;1243;54.298;10.172;2023-01-15T04:28:10;6.10;1.00
2463;DHT22;1243;54.298;10.172;2023-01-15T04:30:37;6.10;1.00
2463;DHT22;1243;54.298;10.172;2023-01-15T04:33:04;6.00;1.00
2463;DHT22;1243;54.298;10.172;2023-01-15T04:35:30;6.10;1.00
2463;DHT22;1243;54.298;10.172;2023-01-15T04:37:57;6.10;1.00
2463;DHT22;1243;54.298;10.172;2023-01-15T04:40:24;6.10;1.00
2463;DHT22;1243;54.298;10.172;2023-01-15T04:43:12;6.20;1.00
2463;DHT22;1243;54.298;10.172;2023-01-15T04:45:57;6.20;1.00
2463;DHT22;1243;54.298;10.172;2023-01-15T04:48:23;6.10;1.00
2463;DHT22;1243;54.298;10.172;2023-01-15T04:50:49;6.10;1.00
2463;DHT22;1243;54.298;10.172;2023-01-15T04:53:15;6.10;1.00
2463;DHT22;1243;54.298;10.172;2023-01-15T04:55:40;6.10;1.00
2463;DHT22;1243;54.298;10.172;2023-01-15T04:58:06;6.10;1.00
2463;DHT22;1243;54.298;10.172;2023-01-15T05:00:32;6.10;1.00
2463;DHT22;1243;54.298;10.172;2023-01-15T05:02:58;6.10;1.00
2463;DHT22;1243;54.298;10.172;2023-01-15T05:05:24;6.10;1.00
2463;DHT22;1243;54.298;10.172;2023-01-15T05:07:49;6.10;1.00
2463;DHT22;1243;54.298;10.172;2023-01-15T05:10:15;6.10;1.00
2463;DHT22;1243;54.298;10.172;2023-01-15T05:12:41;6.10;1.00
2463;DHT22;1243;54.298;10.172;2023-01-15T05:15:07;6.10;1.00
2463;DHT22;1243;54.298;10.172;2023-01-15T05:17:33;6.10;1.00
2463;DHT22;1243;54.298;10.172;2023-01-15T05:19:58;6.10;1.00
2463;DHT22;1243;54.298;10.172;2023-01-15T05:22:24;6.10;1.00
2463;DHT22;1243;54.298;10.172;2023-01-15T05:24:50;6.10;1.00
2463;DHT22;1243;54.298;10.172;2023-01-15T05:27:16;6.10;1.00
2463;DHT22;1243;54.298;10.172;2023-01-15T05:29:42;6.10;1.00
2463;DHT22;1243;54.298;10.172;2023-01-15T05:32:08;6.00;1.00
2463;DHT22;1243;54.298;10.172;2023-01-15T05:34:33;6.00;1.00
2463;DHT22;1243;54.298;10.172;2023-01-15T05:36:59;6.10;1.00
2463;DHT22;1243;54.298;10.172;2023-01-15T05:39:25;6.00;1.00
2463;DHT22;1243;54.298;10.172;2023-01-15T05:41:51;6.00;1.00
2463;DHT22;1243;54.298;10.172;2023-01-15T05:44:28;6.00;1.00
2463;DHT22;1243;54.298;10.172;2023-01-15T05:46:59;5.90;1.00
2463;DHT22;1243;54.298;10.172;2023-01-15T05:49:28;5.90;1.00
2463;DHT22;1243;54.298;10.172;2023-01-15T05:51:55;5.90;1.00
2463;DHT22;1243;54.298;10.172;2023-01-15T05:54:28;5.90;1.00
2463;DHT22;1243;54.298;10.172;2023-01-15T05:56:54;5.90;1.00
2463;DHT22;1243;54.298;10.172;2023-01-15T05:59:22;5.90;1.00
2463;DHT22;1243;54.298;10.172;2023-01-15T06:01:48;5.90;1.00
2463;DHT22;1243;54.298;10.172;2023-01-15T06:04:14;5.90;1.00
2463;DHT22;1243;54.298;10.172;2023-01-15T06:06:42;6.00;1.00
2463;DHT22;1243;54.298;10.172;2023-01-15T06:09:09;6.00;1.00
2463;DHT22;1243;54.298;10.172;2023-01-15T06:11:35;6.00;1.00
2463;DHT22;1243;54.298;10.172;2023-01-15T06:14:00;6.00;1.00
2463;DHT22;1243;54.298;10.172;2023-01-15T06:16:26;6.10;1.00
2463;DHT22;1243;54.298;10.172;2023-01-15T06:18:52;6.10;1.00
2463;DHT22;1243;54.298;10.172;2023-01-15T06:21:18;6.10;1.00
2463;DHT22;1243;54.298;10.172;2023-01-15T06:23:44;6.10;1.00
2463;DHT22;1243;54.298;10.172;2023-01-15T06:26:16;6.10;1.00
2463;DHT22;1243;54.298;10.172;2023-01-15T06:28:43;6.10;1.00
2463;DHT22;1243;54.298;10.172;2023-01-15T06:31:12;6.10;1.00
2463;DHT22;1243;54.298;10.172;2023-01-15T06:33:38;6.10;1.00
2463;DHT22;1243;54.298;10.172;2023-01-15T06:36:05;6.10;1.00
2463;DHT22;1243;54.298;10.172;2023-01-15T06:38:32;6.20;1.00
2463;DHT22;1243;54.298;10.172;2023-01-15T06:40:59;6.20;1.00
2463;DHT22;1243;54.298;10.172;2023-01-15T06:43:25;6.20;1.00
2463;DHT22;1243;54.298;10.172;2023-01-15T06:46:09;6.20;1.00
2463;DHT22;1243;54.298;10.172;2023-01-15T06:49:13;6.30;1.00
2463;DHT22;1243;54.298;10.172;2023-01-15T06:51:39;6.30;1.00
2463;DHT22;1243;54.298;10.172;2023-01-15T06:54:04;6.30;1.00
2463;DHT22;1243;54.298;10.172;2023-01-15T06:56:30;6.30;1.00
2463;DHT22;1243;54.298;10.172;2023-01-15T06:58:56;6.30;1.00
2463;DHT22;1243;54.298;10.172;2023-01-15T07:01:21;6.30;1.00
2463;DHT22;1243;54.298;10.172;2023-01-15T07:03:47;6.30;1.00
2463;DHT22;1243;54.298;10.172;2023-01-15T07:06:13;6.20;1.00
2463;DHT22;1243;54.298;10.172;2023-01-15T07:08:39;6.20;1.00
2463;DHT22;1243;54.298;10.172;2023-01-15T07:11:07;6.20;1.00
2463;DHT22;1243;54.298;10.172;2023-01-15T07:13:34;6.20;1.00
2463;DHT22;1243;54.298;10.172;2023-01-15T07:16:01;6.20;1.00
2463;DHT22;1243;54.298;10.172;2023-01-15T07:18:28;6.20;1.00
2463;DHT22;1243;54.298;10.172;2023-01-15T07:20:55;6.10;99.90
2463;DHT22;1243;54.298;10.172;2023-01-15T07:23:23;6.10;99.90
2463;DHT22;1243;54.298;10.172;2023-01-15T07:25:50;6.20;99.90
2463;DHT22;1243;54.298;10.172;2023-01-15T07:28:16;6.20;99.90
2463;DHT22;1243;54.298;10.172;2023-01-15T07:30:42;6.20;99.90
2463;DHT22;1243;54.298;10.172;2023-01-15T07:33:07;6.20;99.90
2463;DHT22;1243;54.298;10.172;2023-01-15T07:35:34;6.20;99.90
2463;DHT22;1243;54.298;10.172;2023-01-15T07:38:01;6.20;99.90
2463;DHT22;1243;54.298;10.172;2023-01-15T07:40:27;6.20;99.90
2463;DHT22;1243;54.298;10.172;2023-01-15T07:42:53;6.20;99.90
2463;DHT22;1243;54.298;10.172;2023-01-15T07:45:41;6.20;99.90
2463;DHT22;1243;54.298;10.172;2023-01-15T07:48:26;6.10;99.90
2463;DHT22;1243;54.298;10.172;2023-01-15T07:51:10;6.10;99.90
2463;DHT22;1243;54.298;10.172;2023-01-15T07:53:36;6.10;99.90
2463;DHT22;1243;54.298;10.172;2023-01-15T07:56:02;6.10;99.90
2463;DHT22;1243;54.298;10.172;2023-01-15T07:58:28;6.10;99.90
2463;DHT22;1243;54.298;10.172;2023-01-15T08:00:53;6.10;99.90
2463;DHT22;1243;54.298;10.172;2023-01-15T08:03:19;6.10;99.90
2463;DHT22;1243;54.298;10.172;2023-01-15T08:05:45;6.10;99.90
2463;DHT22;1243;54.298;10.172;2023-01-15T08:08:15;6.10;99.90
2463;DHT22;1243;54.298;10.172;2023-01-15T08:10:40;6.10;99.90
2463;DHT22;1243;54.298;10.172;2023-01-15T08:13:25;6.10;99.90
2463;DHT22;1243;54.298;10.172;2023-01-15T08:16:09;6.10;99.90
2463;DHT22;1243;54.298;10.172;2023-01-15T08:18:36;6.20;99.90
2463;DHT22;1243;54.298;10.172;2023-01-15T08:21:02;6.10;99.90
2463;DHT22;1243;54.298;10.172;2023-01-15T08:23:27;6.10;99.90
2463;DHT22;1243;54.298;10.172;2023-01-15T08:25:53;6.10;99.90
2463;DHT22;1243;54.298;10.172;2023-01-15T08:28:19;6.10;99.90
2463;DHT22;1243;54.298;10.172;2023-01-15T08:30:44;6.10;99.90
2463;DHT22;1243;54.298;10.172;2023-01-15T08:33:10;6.10;99.90
2463;DHT22;1243;54.298;10.172;2023-01-15T08:35:36;6.10;99.90
2463;DHT22;1243;54.298;10.172;2023-01-15T08:38:05;6.20;99.90
2463;DHT22;1243;54.298;10.172;2023-01-15T08:40:31;6.20;99.90
2463;DHT22;1243;54.298;10.172;2023-01-15T08:42:57;6.20;99.90
2463;DHT22;1243;54.298;10.172;2023-01-15T08:45:23;6.20;99.90
2463;DHT22;1243;54.298;10.172;2023-01-15T08:47:48;6.30;99.90
2463;DHT22;1243;54.298;10.172;2023-01-15T08:50:14;6.30;99.90
2463;DHT22;1243;54.298;10.172;2023-01-15T08:52:40;6.30;99.90
2463;DHT22;1243;54.298;10.172;2023-01-15T08:55:06;6.30;99.90
2463;DHT22;1243;54.298;10.172;2023-01-15T08:57:32;6.30;99.90
2463;DHT22;1243;54.298;10.172;2023-01-15T08:59:58;6.30;99.90
2463;DHT22;1243;54.298;10.172;2023-01-15T09:02:24;6.30;99.90
2463;DHT22;1243;54.298;10.172;2023-01-15T09:04:49;6.30;99.90
2463;DHT22;1243;54.298;10.172;2023-01-15T09:07:16;6.30;99.90
2463;DHT22;1243;54.298;10.172;2023-01-15T09:09:42;6.40;99.90
2463;DHT22;1243;54.298;10.172;2023-01-15T09:12:08;6.40;99.90
2463;DHT22;1243;54.298;10.172;2023-01-15T09:14:34;6.40;99.90
2463;DHT22;1243;54.298;10.172;2023-01-15T09:16:59;6.40;99.90
2463;DHT22;1243;54.298;10.172;2023-01-15T09:19:25;6.40;99.90
2463;DHT22;1243;54.298;10.172;2023-01-15T09:21:51;6.40;99.90
2463;DHT22;1243;54.298;10.172;2023-01-15T09:24:16;6.40;99.90
2463;DHT22;1243;54.298;10.172;2023-01-15T09:26:42;6.30;99.90
2463;DHT22;1243;54.298;10.172;2023-01-15T09:29:09;6.40;99.90
2463;DHT22;1243;54.298;10.172;2023-01-15T09:31:35;6.30;99.90
2463;DHT22;1243;54.298;10.172;2023-01-15T09:34:01;6.30;99.90
2463;DHT22;1243;54.298;10.172;2023-01-15T09:36:33;6.30;99.90
2463;DHT22;1243;54.298;10.172;2023-01-15T09:39:01;6.30;99.90
2463;DHT22;1243;54.298;10.172;2023-01-15T09:50:17;6.40;99.90
2463;DHT22;1243;54.298;10.172;2023-01-15T09:55:21;6.40;99.90
2463;DHT22;1243;54.298;10.172;2023-01-15T09:57:53;6.40;99.90
2463;DHT22;1243;54.298;10.172;2023-01-15T10:00:24;6.40;99.90
2463;DHT22;1243;54.298;10.172;2023-01-15T10:08:30;6.40;99.90
2463;DHT22;1243;54.298;10.172;2023-01-15T10:14:11;6.50;99.90
2463;DHT22;1243;54.298;10.172;2023-01-15T10:16:38;6.60;99.90
2463;DHT22;1243;54.298;10.172;2023-01-15T10:19:04;6.60;99.90
2463;DHT22;1243;54.298;10.172;2023-01-15T10:21:43;6.60;99.90
2463;DHT22;1243;54.298;10.172;2023-01-15T10:26:57;6.60;99.90
2463;DHT22;1243;54.298;10.172;2023-01-15T10:34:51;6.50;99.90
2463;DHT22;1243;54.298;10.172;2023-01-15T10:42:46;6.60;95.80
2463;DHT22;1243;54.298;10.172;2023-01-15T10:45:24;6.70;97.20
2463;DHT22;1243;54.298;10.172;2023-01-15T10:48:04;6.70;91.60
2463;DHT22;1243;54.298;10.172;2023-01-15T10:50:31;6.80;91.30
2463;DHT22;1243;54.298;10.172;2023-01-15T10:55:46;6.80;91.30
2463;DHT22;1243;54.298;10.172;2023-01-15T11:01:09;6.70;91.30
2463;DHT22;1243;54.298;10.172;2023-01-15T11:03:38;6.80;91.30
2463;DHT22;1243;54.298;10.172;2023-01-15T11:06:06;6.80;90.50
2463;DHT22;1243;54.298;10.172;2023-01-15T11:08:36;6.80;91.30
2463;DHT22;1243;54.298;10.172;2023-01-15T11:14:43;6.80;77.70
2463;DHT22;1243;54.298;10.172;2023-01-15T11:17:40;6.70;76.60
2463;DHT22;1243;54.298;10.172;2023-01-15T11:22:56;6.70;68.20
2463;DHT22;1243;54.298;10.172;2023-01-15T11:25:31;6.80;64.70
2463;DHT22;1243;54.298;10.172;2023-01-15T11:28:02;6.80;64.10
2463;DHT22;1243;54.298;10.172;2023-01-15T11:30:34;6.80;55.70
2463;DHT22;1243;54.298;10.172;2023-01-15T11:33:05;6.80;57.10
2463;DHT22;1243;54.298;10.172;2023-01-15T11:35:32;6.90;51.20
2463;DHT22;1243;54.298;10.172;2023-01-15T11:38:06;6.90;50.50
2463;DHT22;1243;54.298;10.172;2023-01-15T11:40:35;7.00;44.50
2463;DHT22;1243;54.298;10.172;2023-01-15T11:43:01;6.90;20.70
2463;DHT22;1243;54.298;10.172;2023-01-15T11:45:50;6.80;17.80
2463;DHT22;1243;54.298;10.172;2023-01-15T11:48:43;6.80;18.00
2463;DHT22;1243;54.298;10.172;2023-01-15T11:51:28;6.70;14.60
2463;DHT22;1243;54.298;10.172;2023-01-15T11:54:03;6.70;11.50
2463;DHT22;1243;54.298;10.172;2023-01-15T11:56:30;6.70;48.70
2463;DHT22;1243;54.298;10.172;2023-01-15T11:59:00;6.50;77.30
2463;DHT22;1243;54.298;10.172;2023-01-15T12:01:47;6.30;91.10
2463;DHT22;1243;54.298;10.172;2023-01-15T12:04:28;6.20;91.10
2463;DHT22;1243;54.298;10.172;2023-01-15T12:06:55;6.20;91.10
2463;DHT22;1243;54.298;10.172;2023-01-15T12:12:25;6.30;91.10
2463;DHT22;1243;54.298;10.172;2023-01-15T12:15:07;6.30;91.10
2463;DHT22;1243;54.298;10.172;2023-01-15T12:29:09;6.30;70.80
2463;DHT22;1243;54.298;10.172;2023-01-15T12:31:43;6.30;87.30
2463;DHT22;1243;54.298;10.172;2023-01-15T12:37:05;6.40;64.30
2463;DHT22;1243;54.298;10.172;2023-01-15T12:39:39;6.40;59.90
2463;DHT22;1243;54.298;10.172;2023-01-15T12:42:10;6.50;65.10
2463;DHT22;1243;54.298;10.172;2023-01-15T12:44:58;6.40;65.80
2463;DHT22;1243;54.298;10.172;2023-01-15T12:47:36;6.40;57.90
2463;DHT22;1243;54.298;10.172;2023-01-15T12:50:46;6.40;55.70
2463;DHT22;1243;54.298;10.172;2023-01-15T12:56:26;6.40;54.90
2463;DHT22;1243;54.298;10.172;2023-01-15T13:01:14;6.50;50.70
2463;DHT22;1243;54.298;10.172;2023-01-15T13:04:01;6.50;38.90
2463;DHT22;1243;54.298;10.172;2023-01-15T13:06:29;6.60;34.40
2463;DHT22;1243;54.298;10.172;2023-01-15T13:09:04;6.60;36.90
2463;DHT22;1243;54.298;10.172;2023-01-15T13:11:33;6.60;29.80
2463;DHT22;1243;54.298;10.172;2023-01-15T13:13:59;6.60;33.20
2463;DHT22;1243;54.298;10.172;2023-01-15T13:21:54;6.60;29.90
2463;DHT22;1243;54.298;10.172;2023-01-15T13:30:15;6.60;43.40
2463;DHT22;1243;54.298;10.172;2023-01-15T13:32:52;6.50;42.30
2463;DHT22;1243;54.298;10.172;2023-01-15T13:35:30;6.50;49.00
2463;DHT22;1243;54.298;10.172;2023-01-15T13:38:01;6.40;49.30
2463;DHT22;1243;54.298;10.172;2023-01-15T13:40:40;6.30;53.40
2463;DHT22;1243;54.298;10.172;2023-01-15T13:43:26;6.30;64.80
2463;DHT22;1243;54.298;10.172;2023-01-15T13:45:53;6.20;71.90
2463;DHT22;1243;54.298;10.172;2023-01-15T13:48:26;6.10;91.10
2463;DHT22;1243;54.298;10.172;2023-01-15T13:50:56;6.00;91.00
2463;DHT22;1243;54.298;10.172;2023-01-15T13:53:30;5.90;96.70
2463;DHT22;1243;54.298;10.172;2023-01-15T13:56:09;5.80;99.90
2463;DHT22;1243;54.298;10.172;2023-01-15T13:58:39;5.80;99.90
2463;DHT22;1243;54.298;10.172;2023-01-15T14:04:06;5.70;99.90
2463;DHT22;1243;54.298;10.172;2023-01-15T14:06:44;5.60;99.90
2463;DHT22;1243;54.298;10.172;2023-01-15T14:09:27;5.60;99.90
2463;DHT22;1243;54.298;10.172;2023-01-15T14:20:35;5.30;99.90
2463;DHT22;1243;54.298;10.172;2023-01-15T14:28:54;5.20;99.90
2463;DHT22;1243;54.298;10.172;2023-01-15T14:32:00;5.20;99.90
2463;DHT22;1243;54.298;10.172;2023-01-15T14:34:33;5.20;99.90
2463;DHT22;1243;54.298;10.172;2023-01-15T14:37:03;5.10;99.90
2463;DHT22;1243;54.298;10.172;2023-01-15T14:39:39;5.10;99.90
2463;DHT22;1243;54.298;10.172;2023-01-15T14:47:48;5.00;99.90
2463;DHT22;1243;54.298;10.172;2023-01-15T14:50:37;5.00;99.90
2463;DHT22;1243;54.298;10.172;2023-01-15T14:56:06;5.00;99.90
2463;DHT22;1243;54.298;10.172;2023-01-15T14:58:35;5.10;99.90
2463;DHT22;1243;54.298;10.172;2023-01-15T15:03:49;5.10;99.90
2463;DHT22;1243;54.298;10.172;2023-01-15T15:06:17;5.10;99.90
2463;DHT22;1243;54.298;10.172;2023-01-15T15:08:44;5.10;99.90
2463;DHT22;1243;54.298;10.172;2023-01-15T15:11:20;5.20;99.90
2463;DHT22;1243;54.298;10.172;2023-01-15T15:14:07;5.20;99.90
2463;DHT22;1243;54.298;10.172;2023-01-15T15:16:42;5.10;1.00
2463;DHT22;1243;54.298;10.172;2023-01-15T15:19:17;5.10;1.00
2463;DHT22;1243;54.298;10.172;2023-01-15T15:21:47;5.00;1.00
2463;DHT22;1243;54.298;10.172;2023-01-15T15:24:27;5.10;1.00
2463;DHT22;1243;54.298;10.172;2023-01-15T15:26:53;5.10;1.00
2463;DHT22;1243;54.298;10.172;2023-01-15T15:29:20;5.10;1.00
2463;DHT22;1243;54.298;10.172;2023-01-15T15:31:55;5.10;1.00
2463;DHT22;1243;54.298;10.172;2023-01-15T15:34:39;5.00;1.00
2463;DHT22;1243;54.298;10.172;2023-01-15T15:37:17;5.10;1.00
2463;DHT22;1243;54.298;10.172;2023-01-15T15:39:59;5.10;1.00
2463;DHT22;1243;54.298;10.172;2023-01-15T15:42:33;5.00;1.00
2463;DHT22;1243;54.298;10.172;2023-01-15T15:45:22;5.00;1.00
2463;DHT22;1243;54.298;10.172;2023-01-15T15:50:55;4.90;1.00
2463;DHT22;1243;54.298;10.172;2023-01-15T15:53:20;4.80;1.00
2463;DHT22;1243;54.298;10.172;2023-01-15T15:55:46;4.80;1.00
2463;DHT22;1243;54.298;10.172;2023-01-15T15:58:23;4.80;1.00
2463;DHT22;1243;54.298;10.172;2023-01-15T16:00:51;4.70;1.00
2463;DHT22;1243;54.298;10.172;2023-01-15T16:03:23;4.70;1.00
2463;DHT22;1243;54.298;10.172;2023-01-15T16:06:05;4.80;1.00
2463;DHT22;1243;54.298;10.172;2023-01-15T16:08:33;4.80;1.00
2463;DHT22;1243;54.298;10.172;2023-01-15T16:11:03;4.80;1.00
2463;DHT22;1243;54.298;10.172;2023-01-15T16:13:44;4.80;1.00
2463;DHT22;1243;54.298;10.172;2023-01-15T16:16:12;4.80;1.00
2463;DHT22;1243;54.298;10.172;2023-01-15T16:18:48;4.80;1.00
2463;DHT22;1243;54.298;10.172;2023-01-15T16:23:57;4.90;1.00
2463;DHT22;1243;54.298;10.172;2023-01-15T16:26:42;4.90;1.00
2463;DHT22;1243;54.298;10.172;2023-01-15T16:29:27;4.90;1.00
2463;DHT22;1243;54.298;10.172;2023-01-15T16:31:53;4.90;1.00
2463;DHT22;1243;54.298;10.172;2023-01-15T16:34:31;4.90;1.00
2463;DHT22;1243;54.298;10.172;2023-01-15T16:36:59;4.90;1.00
2463;DHT22;1243;54.298;10.172;2023-01-15T16:39:42;4.90;1.00
2463;DHT22;1243;54.298;10.172;2023-01-15T16:42:33;4.90;1.00
2463;DHT22;1243;54.298;10.172;2023-01-15T16:45:17;4.80;1.00
2463;DHT22;1243;54.298;10.172;2023-01-15T16:48:08;4.80;1.00
2463;DHT22;1243;54.298;10.172;2023-01-15T16:50:37;4.70;1.00
2463;DHT22;1243;54.298;10.172;2023-01-15T16:53:05;4.70;1.00
2463;DHT22;1243;54.298;10.172;2023-01-15T16:55:38;4.70;1.00
2463;DHT22;1243;54.298;10.172;2023-01-15T17:00:40;4.70;1.00
2463;DHT22;1243;54.298;10.172;2023-01-15T17:05:45;4.80;1.00
2463;DHT22;1243;54.298;10.172;2023-01-15T17:08:20;4.80;1.00
2463;DHT22;1243;54.298;10.172;2023-01-15T17:10:58;4.80;1.10
2463;DHT22;1243;54.298;10.172;2023-01-15T17:13:42;4.90;5.80
2463;DHT22;1243;54.298;10.172;2023-01-15T17:16:21;4.90;11.80
2463;DHT22;1243;54.298;10.172;2023-01-15T17:18:48;4.90;14.20
2463;DHT22;1243;54.298;10.172;2023-01-15T17:21:17;5.00;24.40
2463;DHT22;1243;54.298;10.172;2023-01-15T17:23:45;5.00;28.60
2463;DHT22;1243;54.298;10.172;2023-01-15T17:26:20;5.00;33.70
2463;DHT22;1243;54.298;10.172;2023-01-15T17:28:46;5.10;43.40
2463;DHT22;1243;54.298;10.172;2023-01-15T17:31:25;5.20;53.10
2463;DHT22;1243;54.298;10.172;2023-01-15T17:33:53;5.30;59.60
2463;DHT22;1243;54.298;10.172;2023-01-15T17:36:19;5.30;62.70
2463;DHT22;1243;54.298;10.172;2023-01-15T17:38:46;5.30;63.60
2463;DHT22;1243;54.298;10.172;2023-01-15T17:41:16;5.30;60.60
2463;DHT22;1243;54.298;10.172;2023-01-15T17:43:42;5.40;61.80
2463;DHT22;1243;54.298;10.172;2023-01-15T17:46:08;5.40;63.20
2463;DHT22;1243;54.298;10.172;2023-01-15T17:48:34;5.40;46.70
2463;DHT22;1243;54.298;10.172;2023-01-15T17:51:04;5.40;28.90
2463;DHT22;1243;54.298;10.172;2023-01-15T17:53:31;5.40;23.60
2463;DHT22;1243;54.298;10.172;2023-01-15T17:55:57;5.40;22.20
2463;DHT22;1243;54.298;10.172;2023-01-15T17:58:53;5.40;13.90
2463;DHT22;1243;54.298;10.172;2023-01-15T18:01:43;5.40;23.50
2463;DHT22;1243;54.298;10.172;2023-01-15T18:04:32;5.40;28.90
2463;DHT22;1243;54.298;10.172;2023-01-15T18:07:21;5.40;30.40
2463;DHT22;1243;54.298;10.172;2023-01-15T18:09:48;5.30;32.70
2463;DHT22;1243;54.298;10.172;2023-01-15T18:12:17;5.30;44.60
2463;DHT22;1243;54.298;10.172;2023-01-15T18:14:43;5.30;52.70
2463;DHT22;1243;54.298;10.172;2023-01-15T18:17:09;5.30;63.60
2463;DHT22;1243;54.298;10.172;2023-01-15T18:19:36;5.30;62.40
2463;DHT22;1243;54.298;10.172;2023-01-15T18:22:01;5.40;67.10
2463;DHT22;1243;54.298;10.172;2023-01-15T18:24:28;5.30;69.40
2463;DHT22;1243;54.298;10.172;2023-01-15T18:26:53;5.30;68.60
2463;DHT22;1243;54.298;10.172;2023-01-15T18:29:20;5.30;69.80
2463;DHT22;1243;54.298;10.172;2023-01-15T18:31:48;5.30;66.80
2463;DHT22;1243;54.298;10.172;2023-01-15T18:34:14;5.30;69.70
2463;DHT22;1243;54.298;10.172;2023-01-15T18:36:40;5.30;71.60
2463;DHT22;1243;54.298;10.172;2023-01-15T18:39:06;5.30;77.40
2463;DHT22;1243;54.298;10.172;2023-01-15T18:41:34;5.30;77.60
2463;DHT22;1243;54.298;10.172;2023-01-15T18:44:09;5.30;77.60
2463;DHT22;1243;54.298;10.172;2023-01-15T18:46:57;5.30;77.60